Time;durP1;ratioP1;P1;durP2;ratioP2;P2;SDS_P1;SDS_P2;PMS_P1;PMS_P2;Temp;Humidity;BMP_temperature;BMP_pressure;BME280_temperature;BME280_humidity;BME280_pressure;Samples;Min_cycle;Max_cycle;Signal;HPM_P1;HPM_P2
2021/01/12 00:02:23;;;;;;;18.27;11.75;;;;;;;;;;5032033;28;20022;-83
2021/01/12 00:04:49;;;;;;;21.05;13.23;;;;;;;;;;5030428;28;20325;-83
2021/01/12 00:07:19;;;;;;;19.08;12.82;;;;;;;;;;5030447;28;20112;-79
2021/01/12 00:09:45;;;;;;;21.02;13.48;;;;;;;;;;5031701;28;20030;-81
2021/01/12 00:12:11;;;;;;;19.30;12.68;;;;;;;;;;5030762;28;20108;-80
2021/01/12 00:14:37;;;;;;;18.88;12.30;;;;;;;;;;5030456;28;20018;-78
2021/01/12 00:17:04;;;;;;;18.98;12.90;;;;;;;;;;5031882;28;20032;-76
2021/01/12 00:19:31;;;;;;;20.73;12.88;;;;;;;;;;5030216;28;20465;-77
2021/01/12 00:21:57;;;;;;;20.88;13.20;;;;;;;;;;5031234;28;20025;-74
2021/01/12 00:24:23;;;;;;;19.75;12.02;;;;;;;;;;5031186;28;20043;-75
2021/01/12 00:26:50;;;;;;;20.50;13.65;;;;;;;;;;5031348;28;20105;-79
2021/01/12 00:29:16;;;;;;;20.55;13.52;;;;;;;;;;5030222;28;20573;-80
2021/01/12 00:31:43;;;;;;;21.40;12.90;;;;;;;;;;5030585;28;20539;-82
2021/01/12 00:34:09;;;;;;;19.15;13.27;;;;;;;;;;5031682;28;20029;-80
2021/01/12 00:36:46;;;;;;;20.23;13.50;;;;;;;;;;5035402;28;20068;-79
2021/01/12 00:39:12;;;;;;;22.13;13.15;;;;;;;;;;5033758;28;20203;-77
2021/01/12 00:41:38;;;;;;;19.60;12.77;;;;;;;;;;5035001;28;20494;-78
2021/01/12 00:44:05;;;;;;;23.67;14.48;;;;;;;;;;5035021;28;20038;-78
2021/01/12 00:46:32;;;;;;;19.13;13.15;;;;;;;;;;5033660;28;20038;-74
2021/01/12 00:48:58;;;;;;;19.95;12.60;;;;;;;;;;5034048;28;20025;-79
2021/01/12 00:51:37;;;;;;;24.80;13.77;;;;;;;;;;5034743;28;20439;-78
2021/01/12 00:54:07;;;;;;;19.75;12.70;;;;;;;;;;5033408;28;20112;-77
2021/01/12 00:56:33;;;;;;;19.30;12.70;;;;;;;;;;5033399;28;20017;-77
2021/01/12 00:58:59;;;;;;;22.17;13.55;;;;;;;;;;5034774;28;20032;-78
2021/01/12 01:01:25;;;;;;;19.60;13.18;;;;;;;;;;5034851;28;20034;-78
2021/01/12 01:03:52;;;;;;;20.65;13.50;;;;;;;;;;5036097;28;20499;-78
2021/01/12 01:06:18;;;;;;;18.08;12.18;;;;;;;;;;5054593;28;20029;-82
2021/01/12 01:08:44;;;;;;;20.73;13.50;;;;;;;;;;5054439;28;20076;-78
2021/01/12 01:11:10;;;;;;;18.92;13.10;;;;;;;;;;5054637;28;20075;-76
2021/01/12 01:13:36;;;;;;;18.50;11.95;;;;;;;;;;5053241;28;20025;-80
2021/01/12 01:16:02;;;;;;;20.35;13.20;;;;;;;;;;5053174;28;20024;-78
2021/01/12 01:18:28;;;;;;;20.98;12.93;;;;;;;;;;5054431;28;20082;-78
2021/01/12 01:20:54;;;;;;;20.08;13.27;;;;;;;;;;5053676;28;20021;-89
2021/01/12 01:23:20;;;;;;;20.08;12.95;;;;;;;;;;5053124;28;20063;-78
2021/01/12 01:25:47;;;;;;;19.67;12.82;;;;;;;;;;5054758;28;20109;-80
2021/01/12 01:28:13;;;;;;;21.23;13.30;;;;;;;;;;5053304;28;20015;-83
2021/01/12 01:30:39;;;;;;;18.38;12.48;;;;;;;;;;5053331;28;20119;-75
2021/01/12 01:33:05;;;;;;;20.05;13.50;;;;;;;;;;5054365;28;20016;-76
2021/01/12 01:35:31;;;;;;;19.45;12.40;;;;;;;;;;5053988;28;20036;-78
2021/01/12 01:37:57;;;;;;;18.92;13.10;;;;;;;;;;5052600;28;20551;-77
2021/01/12 01:40:24;;;;;;;24.38;13.30;;;;;;;;;;5052724;28;20116;-84
2021/01/12 01:42:51;;;;;;;21.60;12.48;;;;;;;;;;5052637;28;20053;-78
2021/01/12 01:45:17;;;;;;;19.38;12.50;;;;;;;;;;5053202;28;20537;-79
2021/01/12 01:47:44;;;;;;;20.25;12.68;;;;;;;;;;5054165;28;20025;-80
2021/01/12 01:50:11;;;;;;;22.05;12.70;;;;;;;;;;5052780;28;20021;-74
2021/01/12 01:52:38;;;;;;;17.77;12.07;;;;;;;;;;5053765;28;20028;-79
2021/01/12 01:55:05;;;;;;;18.42;11.55;;;;;;;;;;5052324;28;20036;-80
2021/01/12 01:57:31;;;;;;;19.02;11.93;;;;;;;;;;5052583;28;20021;-79
2021/01/12 01:59:57;;;;;;;18.60;11.93;;;;;;;;;;5052843;28;20053;-83
2021/01/12 02:02:23;;;;;;;19.33;12.50;;;;;;;;;;5053171;28;20075;-83
2021/01/12 02:04:51;;;;;;;17.77;12.18;;;;;;;;;;5042411;28;20052;-83
2021/01/12 02:07:17;;;;;;;17.20;11.27;;;;;;;;;;5033484;28;20021;-83
2021/01/12 02:09:49;;;;;;;17.40;11.25;;;;;;;;;;5033035;28;20035;-82
2021/01/12 02:12:28;;;;;;;18.63;12.10;;;;;;;;;;5034298;28;20051;-84
2021/01/12 02:14:54;;;;;;;18.00;11.40;;;;;;;;;;5032629;28;20049;-77
2021/01/12 02:17:20;;;;;;;17.17;11.27;;;;;;;;;;5033364;28;20381;-77
2021/01/12 02:19:46;;;;;;;18.58;11.93;;;;;;;;;;5033566;28;20025;-83
2021/01/12 02:22:23;;;;;;;18.60;11.40;;;;;;;;;;5047595;28;20036;-82
2021/01/12 02:24:49;;;;;;;18.15;10.80;;;;;;;;;;5049828;28;20086;-88
2021/01/12 02:27:22;;;;;;;17.42;11.70;;;;;;;;;;5065944;28;20021;-83
2021/01/12 02:29:49;;;;;;;18.25;11.40;;;;;;;;;;5033305;28;20029;-81
2021/01/12 02:32:16;;;;;;;16.48;11.02;;;;;;;;;;5065298;28;20067;-77
2021/01/12 02:34:44;;;;;;;16.42;10.85;;;;;;;;;;5033099;28;20033;-74
2021/01/12 02:37:11;;;;;;;19.73;10.77;;;;;;;;;;5069429;28;20020;-76
2021/01/12 02:39:37;;;;;;;19.20;10.65;;;;;;;;;;5052665;28;20518;-77
2021/01/12 02:42:12;;;;;;;19.02;10.90;;;;;;;;;;5054068;28;20037;-78
2021/01/12 02:44:38;;;;;;;18.98;11.32;;;;;;;;;;5053766;28;20033;-77
2021/01/12 02:47:04;;;;;;;17.67;11.43;;;;;;;;;;5052597;28;20045;-77
2021/01/12 02:49:30;;;;;;;19.63;11.32;;;;;;;;;;5053870;28;20071;-76
2021/01/12 02:51:56;;;;;;;16.63;10.85;;;;;;;;;;5053981;28;20025;-77
2021/01/12 02:54:22;;;;;;;20.45;11.25;;;;;;;;;;5053983;28;20452;-77
2021/01/12 02:56:48;;;;;;;19.13;11.27;;;;;;;;;;5051905;28;20458;-81
2021/01/12 02:59:14;;;;;;;19.42;11.52;;;;;;;;;;5053462;28;20025;-77
2021/01/12 03:01:41;;;;;;;18.85;11.23;;;;;;;;;;5053331;28;20021;-77
2021/01/12 03:04:07;;;;;;;20.63;10.88;;;;;;;;;;5047266;28;20477;-77
2021/01/12 03:06:33;;;;;;;19.23;11.38;;;;;;;;;;5033651;28;20438;-77
2021/01/12 03:08:59;;;;;;;19.88;10.40;;;;;;;;;;5065637;28;20029;-77
2021/01/12 03:11:25;;;;;;;17.38;10.52;;;;;;;;;;5033793;28;20044;-77
2021/01/12 03:13:51;;;;;;;17.35;10.98;;;;;;;;;;5033800;28;20099;-78
2021/01/12 03:16:17;;;;;;;16.35;10.52;;;;;;;;;;5033632;28;20022;-77
2021/01/12 03:18:43;;;;;;;17.17;10.63;;;;;;;;;;5033461;28;20103;-77
2021/01/12 03:21:09;;;;;;;18.27;10.85;;;;;;;;;;5034027;28;20032;-77
2021/01/12 03:23:35;;;;;;;17.58;10.70;;;;;;;;;;5065378;28;20048;-77
2021/01/12 03:26:01;;;;;;;15.88;10.60;;;;;;;;;;5033335;28;20388;-77
2021/01/12 03:28:27;;;;;;;16.08;10.68;;;;;;;;;;5065322;28;20026;-77
2021/01/12 03:30:53;;;;;;;17.08;10.50;;;;;;;;;;5033238;28;20056;-77
2021/01/12 03:33:19;;;;;;;14.68;10.02;;;;;;;;;;5064967;28;20052;-77
2021/01/12 03:35:45;;;;;;;15.32;10.48;;;;;;;;;;5064960;28;20053;-76
2021/01/12 03:38:12;;;;;;;18.70;11.02;;;;;;;;;;5032994;28;20461;-77
2021/01/12 03:40:38;;;;;;;17.13;10.73;;;;;;;;;;5033043;28;20135;-77
2021/01/12 03:43:04;;;;;;;15.77;10.57;;;;;;;;;;5033203;28;20032;-77
2021/01/12 03:45:30;;;;;;;16.15;10.40;;;;;;;;;;5065162;28;20049;-77
2021/01/12 03:47:56;;;;;;;17.20;11.38;;;;;;;;;;5065128;28;20048;-76
2021/01/12 03:50:25;;;;;;;18.55;10.40;;;;;;;;;;5033121;28;20033;-77
2021/01/12 03:52:54;;;;;;;14.73;10.18;;;;;;;;;;5065058;28;20498;-77
2021/01/12 03:55:20;;;;;;;16.60;10.43;;;;;;;;;;5065094;28;20110;-76
2021/01/12 03:57:46;;;;;;;13.77;9.50;;;;;;;;;;5065002;28;20025;-76
2021/01/12 04:00:13;;;;;;;14.60;9.82;;;;;;;;;;5031723;28;20036;-77
2021/01/12 04:02:39;;;;;;;16.08;10.13;;;;;;;;;;5033022;28;20481;-76
2021/01/12 04:05:05;;;;;;;15.07;9.88;;;;;;;;;;5064739;28;20037;-77
2021/01/12 04:07:31;;;;;;;15.85;10.23;;;;;;;;;;5032823;28;20056;-77
2021/01/12 04:09:57;;;;;;;16.23;10.60;;;;;;;;;;5030779;28;20026;-77
2021/01/12 04:12:23;;;;;;;13.55;9.43;;;;;;;;;;5032583;28;20053;-77
2021/01/12 04:14:49;;;;;;;15.15;10.00;;;;;;;;;;5031409;28;20043;-77
2021/01/12 04:17:15;;;;;;;16.98;10.32;;;;;;;;;;5032793;28;20096;-76
2021/01/12 04:19:42;;;;;;;15.05;9.57;;;;;;;;;;5031546;28;20022;-77
2021/01/12 04:22:08;;;;;;;13.93;9.98;;;;;;;;;;5032747;28;20025;-77
2021/01/12 04:24:34;;;;;;;13.77;8.85;;;;;;;;;;5032828;28;20034;-76
2021/01/12 04:27:00;;;;;;;15.27;10.10;;;;;;;;;;5032620;28;20018;-77
2021/01/12 04:29:26;;;;;;;15.43;10.35;;;;;;;;;;5031325;28;20021;-77
2021/01/12 04:31:52;;;;;;;15.77;9.98;;;;;;;;;;5032613;28;20025;-77
2021/01/12 04:34:18;;;;;;;16.67;10.73;;;;;;;;;;5031363;28;20403;-77
2021/01/12 04:36:44;;;;;;;16.55;10.48;;;;;;;;;;5032753;28;20152;-77
2021/01/12 04:39:10;;;;;;;16.35;10.45;;;;;;;;;;5032542;28;20045;-77
2021/01/12 04:41:36;;;;;;;15.52;10.70;;;;;;;;;;5032604;28;20026;-77
2021/01/12 04:44:02;;;;;;;15.85;9.77;;;;;;;;;;5032445;28;20042;-77
2021/01/12 04:46:28;;;;;;;17.23;10.57;;;;;;;;;;5031141;28;20385;-77
2021/01/12 04:48:54;;;;;;;16.92;10.18;;;;;;;;;;5031180;28;20072;-77
2021/01/12 04:51:21;;;;;;;15.35;10.48;;;;;;;;;;5032565;28;20021;-76
2021/01/12 04:53:47;;;;;;;16.88;10.75;;;;;;;;;;5031135;28;20468;-76
2021/01/12 04:56:14;;;;;;;14.93;9.30;;;;;;;;;;5031278;28;20029;-77
2021/01/12 04:58:41;;;;;;;17.60;10.07;;;;;;;;;;5031051;28;20017;-77
2021/01/12 05:01:14;;;;;;;15.38;10.40;;;;;;;;;;5032453;28;20030;-77
2021/01/12 05:03:44;;;;;;;16.92;10.35;;;;;;;;;;5032064;28;20033;-77
2021/01/12 05:06:10;;;;;;;16.75;11.13;;;;;;;;;;5030932;28;20116;-77
2021/01/12 05:08:40;;;;;;;16.85;10.55;;;;;;;;;;5030810;28;20021;-77
2021/01/12 05:11:06;;;;;;;18.02;11.18;;;;;;;;;;5031007;28;20021;-77
2021/01/12 05:13:33;;;;;;;18.08;11.63;;;;;;;;;;5030941;28;20186;-78
2021/01/12 05:16:05;;;;;;;16.17;11.18;;;;;;;;;;5032169;28;20480;-77
2021/01/12 05:18:34;;;;;;;18.50;12.07;;;;;;;;;;5030950;28;20033;-77
2021/01/12 05:21:02;;;;;;;19.00;12.77;;;;;;;;;;5034809;28;20021;-77
2021/01/12 05:23:30;;;;;;;19.83;12.88;;;;;;;;;;5035638;28;20120;-77
2021/01/12 05:26:00;;;;;;;22.17;13.65;;;;;;;;;;5034062;28;20026;-77
2021/01/12 05:28:29;;;;;;;19.30;12.93;;;;;;;;;;5035252;28;20018;-76
2021/01/12 05:30:55;;;;;;;19.25;13.38;;;;;;;;;;5035572;28;20420;-77
2021/01/12 05:33:21;;;;;;;19.33;13.40;;;;;;;;;;5035562;28;20097;-77
2021/01/12 05:35:49;;;;;;;19.85;12.80;;;;;;;;;;5035371;28;20026;-77
2021/01/12 05:38:28;;;;;;;21.85;13.43;;;;;;;;;;5033861;28;20045;-77
2021/01/12 05:40:58;;;;;;;19.80;12.80;;;;;;;;;;5035256;28;20108;-79
2021/01/12 05:43:35;;;;;;;20.20;13.40;;;;;;;;;;5035030;28;20029;-77
2021/01/12 05:46:08;;;;;;;18.17;11.93;;;;;;;;;;5035185;28;20031;-76
2021/01/12 05:48:39;;;;;;;19.60;12.40;;;;;;;;;;5033921;28;20100;-76
2021/01/12 05:51:06;;;;;;;23.70;13.05;;;;;;;;;;5034077;28;20051;-77
2021/01/12 05:53:38;;;;;;;18.80;12.85;;;;;;;;;;5033975;28;20026;-77
2021/01/12 05:56:06;;;;;;;18.30;12.55;;;;;;;;;;5035134;28;20051;-77
2021/01/12 05:58:32;;;;;;;19.15;12.80;;;;;;;;;;5033793;28;20440;-77
2021/01/12 06:01:01;;;;;;;21.45;12.38;;;;;;;;;;5035068;28;20026;-77
2021/01/12 06:03:28;;;;;;;18.98;12.18;;;;;;;;;;5033608;28;20021;-77
2021/01/12 06:05:55;;;;;;;18.15;12.07;;;;;;;;;;5052825;28;20059;-76
2021/01/12 06:08:21;;;;;;;19.98;12.48;;;;;;;;;;5054811;28;20048;-77
2021/01/12 06:10:47;;;;;;;18.35;11.65;;;;;;;;;;5054798;28;20029;-77
2021/01/12 06:13:17;;;;;;;17.65;11.55;;;;;;;;;;5054808;28;20028;-76
2021/01/12 06:15:45;;;;;;;21.70;12.70;;;;;;;;;;5054545;28;20025;-77
2021/01/12 06:18:15;;;;;;;18.33;11.95;;;;;;;;;;5054526;28;20024;-77
2021/01/12 06:20:45;;;;;;;19.40;12.20;;;;;;;;;;5053278;28;20028;-77
2021/01/12 06:23:16;;;;;;;18.55;12.65;;;;;;;;;;5053144;28;20033;-78
2021/01/12 06:25:43;;;;;;;17.17;11.52;;;;;;;;;;5053261;28;20029;-76
2021/01/12 06:28:10;;;;;;;17.63;11.80;;;;;;;;;;5054445;28;20021;-77
2021/01/12 06:30:36;;;;;;;18.55;12.73;;;;;;;;;;5053050;28;20021;-77
2021/01/12 06:33:03;;;;;;;19.00;12.48;;;;;;;;;;5053537;28;20495;-76
2021/01/12 06:35:29;;;;;;;17.35;11.27;;;;;;;;;;5054010;28;20769;-77
2021/01/12 06:37:56;;;;;;;18.42;11.95;;;;;;;;;;5054135;28;20403;-77
2021/01/12 06:40:22;;;;;;;16.58;11.63;;;;;;;;;;5052792;28;20132;-76
2021/01/12 06:42:48;;;;;;;19.52;12.60;;;;;;;;;;5054141;28;20108;-77
2021/01/12 06:45:17;;;;;;;17.88;11.63;;;;;;;;;;5053996;28;20484;-76
2021/01/12 06:47:44;;;;;;;18.20;11.48;;;;;;;;;;5054110;28;20104;-76
2021/01/12 06:50:11;;;;;;;18.02;12.15;;;;;;;;;;5052691;28;20107;-76
2021/01/12 06:52:57;;;;;;;17.63;12.48;;;;;;;;;;5052643;28;20021;-76
2021/01/12 06:55:23;;;;;;;17.77;12.13;;;;;;;;;;5052657;28;20025;-76
2021/01/12 06:57:50;;;;;;;17.38;11.70;;;;;;;;;;5052490;28;20052;-76
2021/01/12 07:00:19;;;;;;;17.15;11.13;;;;;;;;;;5053901;28;20021;-76
2021/01/12 07:02:55;;;;;;;17.02;11.52;;;;;;;;;;5053761;28;20032;-77
2021/01/12 07:05:21;;;;;;;18.17;11.35;;;;;;;;;;5037309;28;20048;-76
2021/01/12 07:07:48;;;;;;;19.20;11.85;;;;;;;;;;5065666;28;20026;-76
2021/01/12 07:10:16;;;;;;;16.30;10.65;;;;;;;;;;5033815;28;20029;-76
2021/01/12 07:12:42;;;;;;;18.20;11.95;;;;;;;;;;5065589;28;20468;-77
2021/01/12 07:15:11;;;;;;;17.40;10.88;;;;;;;;;;5065591;28;20038;-76
2021/01/12 07:17:40;;;;;;;18.45;11.60;;;;;;;;;;5033699;28;20021;-76
2021/01/12 07:20:11;;;;;;;16.13;10.65;;;;;;;;;;5082088;28;20033;-76
2021/01/12 07:22:38;;;;;;;16.13;10.32;;;;;;;;;;5053389;28;20024;-76
2021/01/12 07:25:06;;;;;;;17.08;10.50;;;;;;;;;;5051201;28;20131;-76
2021/01/12 07:27:32;;;;;;;18.08;10.93;;;;;;;;;;5053263;28;20052;-77
2021/01/12 07:30:00;;;;;;;17.63;11.57;;;;;;;;;;5053194;28;20074;-77
2021/01/12 07:32:26;;;;;;;18.02;11.57;;;;;;;;;;5053337;28;20377;-76
2021/01/12 07:34:57;;;;;;;17.88;10.85;;;;;;;;;;5051961;28;20021;-77
2021/01/12 07:37:31;;;;;;;19.42;11.48;;;;;;;;;;5051689;28;20458;-77
2021/01/12 07:39:58;;;;;;;18.45;10.98;;;;;;;;;;5051531;28;20048;-77
2021/01/12 07:42:24;;;;;;;17.70;11.85;;;;;;;;;;5052984;28;20107;-77
2021/01/12 07:44:51;;;;;;;19.33;11.85;;;;;;;;;;5050800;28;20476;-77
2021/01/12 07:47:17;;;;;;;17.63;11.52;;;;;;;;;;5051748;28;20507;-76
2021/01/12 07:49:44;;;;;;;19.63;12.00;;;;;;;;;;5053070;28;20021;-77
2021/01/12 07:52:11;;;;;;;18.17;12.90;;;;;;;;;;5051466;28;20017;-77
2021/01/12 07:54:37;;;;;;;17.15;11.98;;;;;;;;;;5052744;28;20025;-76
2021/01/12 07:57:03;;;;;;;17.95;12.20;;;;;;;;;;5052883;28;20021;-77
2021/01/12 07:59:29;;;;;;;21.15;14.05;;;;;;;;;;5052909;28;20379;-77
2021/01/12 08:01:56;;;;;;;20.40;13.00;;;;;;;;;;5051397;28;20025;-77
2021/01/12 08:04:22;;;;;;;19.13;13.63;;;;;;;;;;5045610;28;20057;-78
2021/01/12 08:06:48;;;;;;;20.02;14.07;;;;;;;;;;5031408;28;20022;-77
2021/01/12 08:09:20;;;;;;;22.95;13.55;;;;;;;;;;5032635;28;20064;-78
2021/01/12 08:11:46;;;;;;;;;;;;;;;;;;5032055;28;20022;-78
2021/01/12 08:14:12;;;;;;;23.52;15.50;;;;;;;;;;5032873;28;19912;-78
2021/01/12 08:16:39;;;;;;;23.42;14.43;;;;;;;;;;5032856;28;20032;-78
2021/01/12 08:19:05;;;;;;;24.45;15.30;;;;;;;;;;5032676;28;20021;-78
2021/01/12 08:21:40;;;;;;;27.85;16.23;;;;;;;;;;5043025;28;20094;-78
2021/01/12 08:24:08;;;;;;;21.20;14.60;;;;;;;;;;5051257;28;20045;-79
2021/01/12 08:26:34;;;;;;;25.17;16.52;;;;;;;;;;5050574;28;20598;-78
2021/01/12 08:29:00;;;;;;;21.88;14.43;;;;;;;;;;5050026;28;20013;-79
2021/01/12 08:31:26;;;;;;;27.45;16.80;;;;;;;;;;5049922;28;20021;-78
2021/01/12 08:33:56;;;;;;;26.38;16.60;;;;;;;;;;5051223;28;20028;-78
2021/01/12 08:36:24;;;;;;;25.17;16.70;;;;;;;;;;5051508;28;20384;-78
2021/01/12 08:38:53;;;;;;;24.98;16.58;;;;;;;;;;5050532;28;20029;-78
2021/01/12 08:41:20;;;;;;;26.50;17.52;;;;;;;;;;5052509;28;20040;-79
2021/01/12 08:43:46;;;;;;;25.52;16.30;;;;;;;;;;5052279;28;20033;-78
2021/01/12 08:46:12;;;;;;;27.30;17.58;;;;;;;;;;5052380;28;20013;-76
2021/01/12 08:48:48;;;;;;;28.20;17.67;;;;;;;;;;5051088;28;20486;-81
2021/01/12 08:51:16;;;;;;;30.92;18.20;;;;;;;;;;5052448;28;20024;-74
2021/01/12 08:53:42;;;;;;;29.67;18.70;;;;;;;;;;5052336;28;20025;-75
2021/01/12 08:56:09;;;;;;;27.60;18.00;;;;;;;;;;5055287;28;20087;-75
2021/01/12 08:58:36;;;;;;;27.80;18.58;;;;;;;;;;5054881;28;20021;-75
2021/01/12 09:01:03;;;;;;;33.80;19.17;;;;;;;;;;5054822;28;20025;-91
2021/01/12 09:03:33;;;;;;;29.08;18.98;;;;;;;;;;5054771;28;20396;-83
2021/01/12 09:05:59;;;;;;;28.83;18.25;;;;;;;;;;5036051;28;20033;-85
2021/01/12 09:08:26;;;;;;;35.20;20.23;;;;;;;;;;5036107;28;20089;-80
2021/01/12 09:10:52;;;;;;;26.48;18.17;;;;;;;;;;5034943;28;20445;-80
2021/01/12 09:13:28;;;;;;;27.73;18.85;;;;;;;;;;5034799;28;20048;-90
2021/01/12 09:15:54;;;;;;;27.35;18.38;;;;;;;;;;5036092;28;20025;-86
2021/01/12 09:18:23;;;;;;;28.63;18.35;;;;;;;;;;5034969;28;20029;-85
2021/01/12 09:21:07;;;;;;;28.98;18.73;;;;;;;;;;5034558;28;20022;-81
2021/01/12 09:23:33;;;;;;;29.40;18.83;;;;;;;;;;5035058;28;20027;-81
2021/01/12 09:26:03;;;;;;;31.80;19.80;;;;;;;;;;5034560;28;20026;-85
2021/01/12 09:28:32;;;;;;;32.45;19.80;;;;;;;;;;5034553;28;20104;-80
2021/01/12 09:31:13;;;;;;;27.70;19.83;;;;;;;;;;5036064;28;20477;-90
2021/01/12 09:33:40;;;;;;;27.30;18.48;;;;;;;;;;5034753;28;20033;-84
2021/01/12 09:36:07;;;;;;;28.27;18.23;;;;;;;;;;5034744;28;20023;-85
2021/01/12 09:38:41;;;;;;;27.38;19.63;;;;;;;;;;5035451;28;20034;-84
2021/01/12 09:41:07;;;;;;;27.63;19.42;;;;;;;;;;5034241;28;20362;-85
2021/01/12 09:43:34;;;;;;;25.15;19.48;;;;;;;;;;5034608;28;20033;-83
2021/01/12 09:46:00;;;;;;;28.90;20.10;;;;;;;;;;5034053;28;20354;-72
2021/01/12 09:48:26;;;;;;;28.33;20.05;;;;;;;;;;5035204;28;20100;-78
2021/01/12 09:50:52;;;;;;;28.35;19.88;;;;;;;;;;5035345;28;20025;-79
2021/01/12 09:53:18;;;;;;;28.13;19.88;;;;;;;;;;5034369;28;20025;-84
2021/01/12 09:55:45;;;;;;;26.45;19.20;;;;;;;;;;5035445;28;20028;-86
2021/01/12 09:58:11;;;;;;;30.33;20.50;;;;;;;;;;5035286;28;20072;-83
2021/01/12 10:00:37;;;;;;;27.85;19.77;;;;;;;;;;5034409;28;20120;-85
2021/01/12 10:03:07;;;;;;;28.77;20.17;;;;;;;;;;5035078;28;20025;-88
2021/01/12 10:05:42;;;;;;;29.73;20.40;;;;;;;;;;5051005;28;20033;-85
2021/01/12 10:08:09;;;;;;;30.60;22.13;;;;;;;;;;5054301;28;20021;-80
2021/01/12 10:10:35;;;;;;;28.17;19.58;;;;;;;;;;5054921;28;20030;-79
2021/01/12 10:13:01;;;;;;;28.75;20.25;;;;;;;;;;5054065;28;20499;-79
2021/01/12 10:15:28;;;;;;;25.27;19.27;;;;;;;;;;5054695;28;20036;-77
2021/01/12 10:17:54;;;;;;;26.38;19.50;;;;;;;;;;5054640;28;20415;-82
2021/01/12 10:20:20;;;;;;;30.13;21.98;;;;;;;;;;5055522;28;20031;-93
2021/01/12 10:22:46;;;;;;;27.00;19.58;;;;;;;;;;5053222;28;20021;-84
2021/01/12 10:25:13;;;;;;;25.70;19.48;;;;;;;;;;5054387;28;20472;-77
2021/01/12 10:27:41;;;;;;;27.33;19.58;;;;;;;;;;5054663;28;20025;-80
2021/01/12 10:30:08;;;;;;;26.52;19.40;;;;;;;;;;5054687;28;20100;-89
2021/01/12 10:32:34;;;;;;;27.35;18.92;;;;;;;;;;5054507;28;20024;-82
2021/01/12 10:35:00;;;;;;;26.23;19.02;;;;;;;;;;5053364;28;20059;-80
2021/01/12 10:37:27;;;;;;;27.38;19.10;;;;;;;;;;5053575;28;20032;-77
2021/01/12 10:39:54;;;;;;;25.00;19.10;;;;;;;;;;5054375;28;20041;-79
2021/01/12 10:42:20;;;;;;;26.52;19.42;;;;;;;;;;5054254;28;20395;-79
2021/01/12 10:44:46;;;;;;;24.95;18.73;;;;;;;;;;5054267;28;20095;-79
2021/01/12 10:47:12;;;;;;;25.13;19.30;;;;;;;;;;5052844;28;20024;-79
2021/01/12 10:49:39;;;;;;;25.35;19.25;;;;;;;;;;5053286;28;20032;-90
2021/01/12 10:52:06;;;;;;;24.77;18.02;;;;;;;;;;5053983;28;20020;-77
2021/01/12 10:54:33;;;;;;;26.50;18.73;;;;;;;;;;5053648;28;20021;-80
2021/01/12 10:56:59;;;;;;;25.23;18.42;;;;;;;;;;5053705;28;20078;-80
2021/01/12 10:59:29;;;;;;;25.23;19.38;;;;;;;;;;5052460;28;20553;-80
2021/01/12 11:02:00;;;;;;;25.55;19.15;;;;;;;;;;5052647;28;20112;-81
2021/01/12 11:04:26;;;;;;;22.95;17.65;;;;;;;;;;5045924;28;20028;-77
2021/01/12 11:06:53;;;;;;;25.10;18.58;;;;;;;;;;5033573;28;20083;-76
2021/01/12 11:09:20;;;;;;;24.17;17.00;;;;;;;;;;5032327;28;20028;-79
2021/01/12 11:11:48;;;;;;;25.38;17.83;;;;;;;;;;5032541;28;20502;-79
2021/01/12 11:14:15;;;;;;;23.13;18.63;;;;;;;;;;5032371;28;20044;-80
2021/01/12 11:16:41;;;;;;;23.75;18.08;;;;;;;;;;5032355;28;20021;-78
2021/01/12 11:19:11;;;;;;;25.90;18.30;;;;;;;;;;5032900;28;20033;-79
2021/01/12 11:21:44;;;;;;;27.25;18.88;;;;;;;;;;5033520;28;20025;-76
2021/01/12 11:24:13;;;;;;;22.58;18.10;;;;;;;;;;5033617;28;20034;-77
2021/01/12 11:26:40;;;;;;;24.25;18.63;;;;;;;;;;5033463;28;20053;-78
2021/01/12 11:29:06;;;;;;;24.27;17.60;;;;;;;;;;5033376;28;20224;-79
2021/01/12 11:31:32;;;;;;;24.35;17.17;;;;;;;;;;5032055;28;20028;-77
2021/01/12 11:33:59;;;;;;;26.75;18.00;;;;;;;;;;5032111;28;20072;-78
2021/01/12 11:36:25;;;;;;;28.10;18.15;;;;;;;;;;5033091;28;20492;-80
2021/01/12 11:38:51;;;;;;;27.35;18.20;;;;;;;;;;5031909;28;20120;-84
2021/01/12 11:41:17;;;;;;;30.20;19.40;;;;;;;;;;5032002;28;20055;-76
2021/01/12 11:43:43;;;;;;;24.75;17.75;;;;;;;;;;5033247;28;20029;-79
2021/01/12 11:46:09;;;;;;;25.65;18.13;;;;;;;;;;5031926;28;20109;-81
2021/01/12 11:48:37;;;;;;;24.45;18.23;;;;;;;;;;5032056;28;20029;-86
2021/01/12 11:51:03;;;;;;;27.38;18.67;;;;;;;;;;5032350;28;20108;-82
2021/01/12 11:53:29;;;;;;;22.90;18.10;;;;;;;;;;5031888;28;20416;-82
2021/01/12 11:55:56;;;;;;;25.75;18.92;;;;;;;;;;5033210;28;20451;-81
2021/01/12 11:58:22;;;;;;;25.65;18.05;;;;;;;;;;5032438;28;20022;-83
2021/01/12 12:00:48;;;;;;;31.38;19.20;;;;;;;;;;5033367;28;20094;-88
2021/01/12 12:03:14;;;;;;;22.95;18.70;;;;;;;;;;5032319;28;20026;-90
2021/01/12 12:06:17;;;;;;;25.02;19.20;;;;;;;;;;5034087;28;20082;-89
2021/01/12 12:08:55;;;;;;;27.05;19.48;;;;;;;;;;5053279;28;20036;-86
2021/01/12 12:11:21;;;;;;;26.20;18.88;;;;;;;;;;5051885;28;20464;-77
2021/01/12 12:14:07;;;;;;;29.05;20.48;;;;;;;;;;5051627;28;20523;-89
2021/01/12 12:17:10;;;;;;;30.50;21.00;;;;;;;;;;5053163;28;20018;-87
2021/01/12 12:20:02;;;;;;;27.80;20.83;;;;;;;;;;5034941;28;20120;-84
2021/01/12 12:22:52;;;;;;;26.90;20.13;;;;;;;;;;5053858;28;20048;-91
2021/01/12 12:25:39;;;;;;;26.88;20.15;;;;;;;;;;5034267;28;20476;-83
2021/01/12 12:28:05;;;;;;;30.30;21.88;;;;;;;;;;5051523;28;20086;-79
2021/01/12 12:30:32;;;;;;;32.38;21.60;;;;;;;;;;5053301;28;20063;-81
2021/01/12 12:32:58;;;;;;;31.48;22.83;;;;;;;;;;5055447;28;20028;-77
2021/01/12 12:35:24;;;;;;;31.48;22.60;;;;;;;;;;5055407;28;20017;-79
2021/01/12 12:37:50;;;;;;;31.60;22.85;;;;;;;;;;5056730;28;20488;-81
2021/01/12 12:40:18;;;;;;;31.42;22.15;;;;;;;;;;5055179;28;20045;-75
2021/01/12 12:42:44;;;;;;;34.47;24.00;;;;;;;;;;5056486;28;20024;-82
2021/01/12 12:45:10;;;;;;;31.40;22.58;;;;;;;;;;5055136;28;20036;-79
2021/01/12 12:47:36;;;;;;;29.33;22.13;;;;;;;;;;5055560;28;20028;-77
2021/01/12 12:50:03;;;;;;;31.33;21.92;;;;;;;;;;5056423;28;20032;-79
2021/01/12 12:52:30;;;;;;;30.60;22.17;;;;;;;;;;5056259;28;20098;-80
2021/01/12 12:54:56;;;;;;;32.55;24.25;;;;;;;;;;5056262;28;20053;-82
2021/01/12 12:57:22;;;;;;;32.60;22.98;;;;;;;;;;5054806;28;20063;-79
2021/01/12 12:59:48;;;;;;;30.40;23.08;;;;;;;;;;5054958;28;20021;-77
2021/01/12 13:02:14;;;;;;;30.65;22.60;;;;;;;;;;5056182;28;20021;-81
2021/01/12 13:04:40;;;;;;;31.95;23.75;;;;;;;;;;5045507;28;20119;-80
2021/01/12 13:07:08;;;;;;;36.03;23.65;;;;;;;;;;5035193;28;20025;-86
2021/01/12 13:09:34;;;;;;;35.10;23.85;;;;;;;;;;5035348;28;20069;-82
2021/01/12 13:12:02;;;;;;;34.47;22.95;;;;;;;;;;5036093;28;20465;-78
2021/01/12 13:14:28;;;;;;;33.55;23.15;;;;;;;;;;5036245;28;20029;-83
2021/01/12 13:16:54;;;;;;;35.03;23.15;;;;;;;;;;5034692;28;20017;-78
2021/01/12 13:19:20;;;;;;;29.98;20.70;;;;;;;;;;5035872;28;20036;-81
2021/01/12 13:21:49;;;;;;;36.05;22.08;;;;;;;;;;5036717;28;20025;-82
2021/01/12 13:24:16;;;;;;;32.75;22.40;;;;;;;;;;5035158;28;20041;-91
2021/01/12 13:26:45;;;;;;;33.63;21.75;;;;;;;;;;5034847;28;20022;-82
2021/01/12 13:29:11;;;;;;;30.75;20.90;;;;;;;;;;5034526;28;20057;-83
2021/01/12 13:31:37;;;;;;;33.28;21.90;;;;;;;;;;5035580;28;20028;-83
2021/01/12 13:34:03;;;;;;;31.27;21.38;;;;;;;;;;5034020;28;20538;-81
2021/01/12 13:36:29;;;;;;;32.03;21.70;;;;;;;;;;5035376;28;20029;-81
2021/01/12 13:38:55;;;;;;;35.65;21.40;;;;;;;;;;5035541;28;20116;-83
2021/01/12 13:41:21;;;;;;;30.77;20.95;;;;;;;;;;5034401;28;20032;-81
2021/01/12 13:43:47;;;;;;;28.08;19.65;;;;;;;;;;5034503;28;20484;-81
2021/01/12 13:46:13;;;;;;;32.33;21.38;;;;;;;;;;5035190;28;20416;-80
2021/01/12 13:48:39;;;;;;;34.83;20.92;;;;;;;;;;5033954;28;20144;-81
2021/01/12 13:51:05;;;;;;;35.42;22.05;;;;;;;;;;5034373;28;20025;-83
2021/01/12 13:53:32;;;;;;;34.72;21.75;;;;;;;;;;5034183;28;20506;-81
2021/01/12 13:55:58;;;;;;;33.67;22.08;;;;;;;;;;5035336;28;20416;-86
2021/01/12 13:58:26;;;;;;;34.97;21.58;;;;;;;;;;5032920;28;20030;-79
2021/01/12 14:00:52;;;;;;;31.23;19.10;;;;;;;;;;5032520;28;20028;-77
2021/01/12 14:03:18;;;;;;;32.70;19.55;;;;;;;;;;5033519;28;20052;-77
2021/01/12 14:05:44;;;;;;;30.20;20.10;;;;;;;;;;5051655;28;20449;-79
2021/01/12 14:08:11;;;;;;;38.63;25.10;;;;;;;;;;5052210;28;20028;-77
2021/01/12 14:10:37;;;;;;;35.60;23.60;;;;;;;;;;5052271;28;20035;-81
2021/01/12 14:13:03;;;;;;;34.92;22.73;;;;;;;;;;5052785;28;20056;-84
2021/01/12 14:15:29;;;;;;;25.75;16.83;;;;;;;;;;5053734;28;20041;-81
2021/01/12 14:17:56;;;;;;;29.98;17.08;;;;;;;;;;5052859;28;20025;-83
2021/01/12 14:20:23;;;;;;;27.40;16.63;;;;;;;;;;5053576;28;20517;-79
2021/01/12 14:22:51;;;;;;;24.02;15.63;;;;;;;;;;5053403;28;20052;-77